Flight Track Log - Related Links

Times and Time Zones

All times are in EDT time to prevent confusion due to time zone crossing. See the CTL16 flight status page for this flight to view local times or setup timezone preferences in your user account.

Time Position Orientation Groundspeed Altitude Reporting Facility
EDT Latitude Longitude Course Direction KTS MPH feet Rate Location/Type
Tue 08:34:54 PM 39.3667 -84.4667 23° Northeast 144 166 1,700  Level Cincinnati TRACON
Tue 08:35:31 PM 39.3914 -84.4528 23° Northeast 155 178 2,000 522 Climbing Indianapolis Center
Tue 08:36:26 PM 39.4219 -84.4108 47° Northeast 175 201 2,500 495 Climbing Indianapolis Center
Tue 08:37:20 PM 39.4528 -84.3664 48° Northeast 188 216 2,900 417 Climbing Indianapolis Center
Tue 08:37:38 PM 39.4603 -84.3567 45° Northeast 184 212 3,000 492 Climbing Indianapolis Center
Tue 08:38:21 PM 39.4883 -84.3144 49° Northeast 190 219 3,400 484 Climbing Indianapolis Center
Tue 08:38:40 PM 39.4953 -84.3058 44° Northeast 187 215 3,500 448 Climbing Indianapolis Center
Tue 08:39:28 PM 39.5306 -84.2578 46° Northeast 192 221 3,900 556 Climbing Indianapolis Center
Tue 08:40:28 PM 39.5661 -84.2056 49° Northeast 193 222 4,500 560 Climbing Indianapolis Center
Tue 08:40:43 PM 39.5753 -84.1944 43° Northeast 192 221 4,600 492 Climbing Indianapolis Center
Tue 08:41:29 PM 39.6036 -84.1564 46° Northeast 194 223 5,000 590 Climbing Indianapolis Center
Tue 08:41:44 PM 39.6133 -84.1444 43° Northeast 193 222 5,200 612 Climbing Indianapolis Center
Tue 08:42:18 PM 39.6364 -84.1147 45° Northeast 192 221 5,500 484 Climbing Indianapolis Center
Tue 08:42:46 PM 39.6517 -84.0964 43° Northeast 191 220 5,700 327 Climbing Indianapolis Center
Tue 08:43:13 PM 39.6689 -84.0728 47° Northeast 192 221 5,800 393 Climbing Indianapolis Center
Tue 08:43:47 PM 39.6903 -84.0461 44° Northeast 192 221 6,100 500 Climbing Indianapolis Center
Tue 08:44:25 PM 39.7156 -84.0111 47° Northeast 194 223 6,400 484 Climbing Indianapolis Center
Tue 08:44:49 PM 39.7300 -83.9967 38° Northeast 194 223 6,600 393 Climbing Indianapolis Center
Tue 08:45:26 PM 39.7547 -83.9644 45° Northeast 190 219 6,800 295 Climbing Indianapolis Center
Tue 08:45:50 PM 39.7694 -83.9489 39° Northeast 193 222 6,900 197 Climbing Indianapolis Center
Tue 08:46:27 PM 39.7981 -83.9186 39° Northeast 194 223 7,000 97 Climbing Indianapolis Center
Tue 08:46:52 PM 39.8106 -83.9022 45° Northeast 193 222 7,000  Level Indianapolis Center
Tue 08:47:21 PM 39.8350 -83.8744 41° Northeast 203 234 7,000  Level Indianapolis Center
Tue 08:47:53 PM 39.8531 -83.8517 44° Northeast 198 228 7,000 109 Level Indianapolis Center
Tue 08:48:16 PM 39.8719 -83.8275 44° Northeast 205 236 7,100  Climbing Indianapolis Center
Tue 08:48:55 PM 39.8956 -83.8011 41° Northeast 202 232 7,000 -179 Descending Indianapolis Center
Tue 08:49:23 PM 39.9203 -83.7711 43° Northeast 207 238 6,900  Descending Indianapolis Center
Tue 08:50:11 PM 39.9528 -83.7289 45° Northeast 207 238 7,000 64 Climbing Indianapolis Center
Tue 08:50:57 PM 39.9806 -83.6950 43° Northeast 207 238 7,000  Level Indianapolis Center
Tue 08:51:13 PM 39.9942 -83.6797 41° Northeast 206 237 7,000  Level Indianapolis Center
Tue 08:51:59 PM 40.0231 -83.6431 44° Northeast 207 238 7,000 91 Level Indianapolis Center
Tue 08:52:19 PM 40.0406 -83.6172 48° Northeast 207 238 7,100  Climbing Indianapolis Center
Tue 08:53:00 PM 40.0636 -83.5883 44° Northeast 207 238 7,000 -98 Descending Indianapolis Center
Tue 08:53:20 PM 40.0800 -83.5650 47° Northeast 206 237 7,000  Level Indianapolis Center
Tue 08:54:01 PM 40.1042 -83.5339 45° Northeast 207 238 7,000  Level Indianapolis Center
Tue 08:54:21 PM 40.1217 -83.5100 46° Northeast 208 239 7,000  Level Indianapolis Center
Tue 08:55:03 PM 40.1467 -83.4806 42° Northeast 207 238 7,000  Level Indianapolis Center
Tue 08:55:22 PM 40.1633 -83.4578 46° Northeast 208 239 7,000  Level Indianapolis Center
Tue 08:56:04 PM 40.1897 -83.4283 40° Northeast 209 241 7,000  Level Indianapolis Center
Tue 08:56:29 PM 40.2114 -83.3983 47° Northeast 207 238 7,000  Level Indianapolis Center
Tue 08:57:05 PM 40.2311 -83.3758 41° Northeast 206 237 7,000  Level Indianapolis Center
Tue 08:57:23 PM 40.2503 -83.3539 41° Northeast 206 237 7,000  Level Indianapolis Center
Tue 08:58:07 PM 40.2800 -83.3131 46° Northeast 208 239 7,000  Level Indianapolis Center
Tue 08:58:24 PM 40.2919 -83.2986 43° Northeast 208 239 7,000  Level Indianapolis Center
Tue 08:59:08 PM 40.3208 -83.2600 46° Northeast 206 237 7,000  Level Indianapolis Center
Tue 08:59:25 PM 40.3333 -83.2461 40° Northeast 203 234 7,000  Level Indianapolis Center
Tue 09:00:09 PM 40.3633 -83.2081 44° Northeast 206 237 7,000 -98 Level Indianapolis Center
Tue 09:00:26 PM 40.3744 -83.1936 45° Northeast 209 241 6,900  Descending Indianapolis Center
Tue 09:01:11 PM 40.4053 -83.1547 44° Northeast 208 239 7,000 57 Climbing Indianapolis Center
Tue 09:02:12 PM 40.4472 -83.1011 44° Northeast 207 238 7,000  Level Indianapolis Center
Tue 09:03:13 PM 40.4886 -83.0458 45° Northeast 210 242 7,000  Level Indianapolis Center
Tue 09:04:15 PM 40.5275 -82.9967 44° Northeast 209 241 7,000 -49 Level Indianapolis Center
Tue 09:05:16 PM 40.5697 -82.9425 44° Northeast 210 242 6,900  Descending Indianapolis Center
Tue 09:06:17 PM 40.6189 -82.8778 45° Northeast 212 244 7,000 49 Climbing Indianapolis Center
Tue 09:07:18 PM 40.6603 -82.8200 47° Northeast 214 246 7,000 -195 Level Indianapolis Center
Tue 09:08:20 PM 40.7008 -82.7606 48° Northeast 217 250 6,600 -537 Descending Indianapolis Center
Tue 09:09:21 PM 40.7453 -82.7000 46° Northeast 225 259 5,900 -541 Descending Indianapolis Center
Tue 09:10:22 PM 40.7889 -82.6411 46° Northeast 223 257 5,500 -404 Descending Indianapolis Center
Tue 09:10:50 PM 40.8119 -82.6186 36° Northeast 217 250 5,300 -310 Descending Cleveland Center
Tue 09:11:20 PM 40.8333 -82.5919 43° Northeast 214 246 5,200 -198 Descending Cleveland Center
Tue 09:12:21 PM 40.8758 -82.5383 44° Northeast 211 243 5,000 -98 Descending Cleveland Center
Tue 09:13:22 PM 40.9142 -82.4872 45° Northeast 199 229 5,000  Level Cleveland Center
Tue 09:14:29 PM 40.9569 -82.4281 46° Northeast 201 231 5,000  Level Cleveland Center
Tue 09:15:35 PM 40.9997 -82.3658 48° Northeast 202 232 5,000  Level Cleveland Center
Tue 09:16:24 PM 41.0275 -82.3200 51° Northeast 201 231 5,000  Level Cleveland Center
Tue 09:17:24 PM 41.0533 -82.2544 62° Northeast 193 222 5,000  Level Cleveland Center
Tue 09:18:19 PM 41.0772 -82.1972 61° Northeast 199 229 5,000 -218 Level Cleveland Center
Tue 09:19:14 PM 41.1031 -82.1400 59° Northeast 199 229 4,600 -397 Descending Cleveland Center
Tue 09:20:20 PM 41.1333 -82.0608 63° Northeast 211 243 4,200 -283 Descending Cleveland Center
Tue 09:21:21 PM 41.1611 -81.9981 60° Northeast 208 239 4,000 -90 Descending Cleveland Center
Tue 09:22:33 PM 41.1956 -81.9214 59° Northeast 192 221 4,000  Level Cleveland Center
Tue 09:23:28 PM 41.2189 -81.8639 62° Northeast 194 223 4,000 -49 Level Cleveland Center
Tue 09:24:35 PM 41.2489 -81.7983 59° Northeast 194 223 3,900 -179 Descending Cleveland Center
Tue 09:25:42 PM 41.2850 -81.7244 57° Northeast 201 231 3,600 -298 Descending Cleveland Center
Tue 09:26:36 PM 41.3128 -81.6694 56° Northeast 207 238 3,300 -313 Descending Cleveland Center
Tue 09:27:37 PM 41.3650 -81.6567 10° North 201 231 3,000 -198 Descending Cleveland Center
Tue 09:28:37 PM 41.4192 -81.6547 North 193 222 2,900 -417 Descending Cleveland Center
Tue 09:29:32 PM 41.4694 -81.6472 North 208 239 2,200 -545 Descending Cleveland Center
Tue 09:30:38 PM 41.5153 -81.6258 19° North 145 167 1,800 -632 Descending Cleveland Center
Tue 09:31:45 PM 41.5256 -81.6647 289° West 99 114 800 -896 Descending Cleveland Center

Login

Don't have an account? Register now (free) for customized features, flight alerts, and more!